Time;durP1;ratioP1;P1;durP2;ratioP2;P2;SDS_P1;SDS_P2;PMS_P1;PMS_P2;Temp;Humidity;BMP_temperature;BMP_pressure;BME280_temperature;BME280_humidity;BME280_pressure;Samples;Min_cycle;Max_cycle;Signal;HPM_P1;HPM_P2
2021/01/04 00:00:41;;;;;;;12.38;10.30;;;;;;;7.91;67.38;100726.97;5066663;28;20045;-63
2021/01/04 00:03:29;;;;;;;13.40;9.75;;;;;;;7.90;67.42;100720.91;5083829;28;20051;-60
2021/01/04 00:06:18;;;;;;;13.02;8.15;;;;;;;7.93;67.55;100723.38;5092147;28;20043;-63
2021/01/04 00:09:00;;;;;;;12.10;8.15;;;;;;;7.95;67.69;100718.94;5092789;28;20044;-64
2021/01/04 00:11:54;;;;;;;13.93;8.50;;;;;;;7.97;68.03;100709.25;5093559;28;20048;-63
2021/01/04 00:14:42;;;;;;;13.50;8.52;;;;;;;7.99;68.04;100714.41;5070215;28;20048;-63
2021/01/04 00:17:14;;;;;;;13.18;7.55;;;;;;;8.01;68.29;100702.09;5092856;28;20131;-63
2021/01/04 00:19:47;;;;;;;13.48;7.20;;;;;;;8.03;68.45;100704.66;5093097;28;20044;-64
2021/01/04 00:22:27;;;;;;;13.15;7.85;;;;;;;8.04;68.36;100703.72;5093121;28;20377;-64
2021/01/04 00:25:23;;;;;;;14.85;7.72;;;;;;;8.01;68.45;100702.09;5092885;28;20067;-63
2021/01/04 00:28:02;;;;;;;12.17;7.60;;;;;;;8.03;68.43;100710.72;5092502;28;20056;-65
2021/01/04 00:30:32;;;;;;;12.18;8.45;;;;;;;8.01;68.61;100707.31;5092541;28;20047;-64
2021/01/04 00:33:16;;;;;;;13.07;8.70;;;;;;;7.97;68.11;100716.22;5093037;28;20380;-63
2021/01/04 00:35:51;;;;;;;15.25;9.60;;;;;;;7.89;67.58;100703.53;5092634;28;20052;-64
2021/01/04 00:38:51;;;;;;;14.00;9.27;;;;;;;7.80;67.53;100704.78;5092942;28;20054;-63
2021/01/04 00:41:23;;;;;;;12.18;8.43;;;;;;;7.78;67.63;100705.78;5065426;28;20059;-63
2021/01/04 00:43:58;;;;;;;11.70;8.32;;;;;;;7.77;67.50;100720.63;5092804;28;20048;-64
2021/01/04 00:46:35;;;;;;;12.00;7.68;;;;;;;7.76;67.53;100711.09;5065856;28;20119;-64
2021/01/04 00:49:26;;;;;;;11.82;8.18;;;;;;;7.75;67.59;100709.38;5092639;28;20064;-62
2021/01/04 00:52:14;;;;;;;12.50;8.32;;;;;;;7.75;67.48;100705.94;5092521;28;20056;-63
2021/01/04 00:55:41;;;;;;;13.68;8.63;;;;;;;7.76;67.49;100708.47;5092063;28;20044;-63
2021/01/04 00:58:45;;;;;;;13.33;8.30;;;;;;;7.78;67.70;100709.25;5048054;28;20055;-64
2021/01/04 01:01:17;;;;;;;12.82;8.15;;;;;;;7.79;67.90;100708.31;5080006;28;20283;-63
2021/01/04 01:04:13;;;;;;;11.30;8.00;;;;;;;7.80;68.01;100710.03;5091499;28;20040;-63
2021/01/04 01:07:09;;;;;;;10.32;7.90;;;;;;;7.83;68.28;100711.66;5077022;28;20485;-64
2021/01/04 01:09:41;;;;;;;13.93;8.80;;;;;;;7.84;68.40;100711.56;5091947;28;20051;-63
2021/01/04 01:12:32;;;;;;;14.50;8.40;;;;;;;7.84;68.49;100716.78;5092233;28;20404;-64
2021/01/04 01:15:18;;;;;;;11.40;8.20;;;;;;;7.88;68.75;100722.72;5092215;28;20400;-63
2021/01/04 01:18:23;;;;;;;13.23;8.50;;;;;;;7.88;68.75;100725.34;5069239;28;20044;-64
2021/01/04 01:20:55;;;;;;;11.88;7.47;;;;;;;7.88;68.36;100727.13;5092085;28;20079;-64
2021/01/04 01:23:26;;;;;;;14.40;7.35;;;;;;;7.89;68.67;100723.59;5092061;28;20382;-64
2021/01/04 01:26:04;;;;;;;13.45;7.57;;;;;;;7.88;68.70;100724.50;5091917;28;20055;-63
2021/01/04 01:28:52;;;;;;;13.07;7.72;;;;;;;7.85;68.78;100718.50;5092252;28;20481;-64
2021/01/04 01:32:01;;;;;;;10.18;6.40;;;;;;;7.87;68.68;100721.03;5068355;28;20404;-64
2021/01/04 01:34:42;;;;;;;10.18;6.88;;;;;;;7.84;68.89;100711.56;5091987;28;20052;-63
2021/01/04 01:37:29;;;;;;;9.73;6.80;;;;;;;7.85;68.63;100715.88;5091975;28;20051;-63
2021/01/04 01:40:14;;;;;;;13.30;7.57;;;;;;;7.84;68.49;100711.56;5092057;28;20040;-64
2021/01/04 01:42:53;;;;;;;10.25;6.60;;;;;;;7.83;68.48;100712.50;5091748;28;20044;-64
2021/01/04 01:45:25;;;;;;;10.23;6.25;;;;;;;7.80;68.37;100710.03;5092027;28;20048;-64
2021/01/04 01:48:19;;;;;;;12.13;6.72;;;;;;;7.78;68.33;100711.88;5087581;28;20048;-64
2021/01/04 01:51:26;;;;;;;12.13;7.03;;;;;;;7.77;68.26;100714.53;5085914;28;20106;-63
2021/01/04 01:54:02;;;;;;;11.77;7.13;;;;;;;7.74;68.20;100715.50;5094911;28;20063;-63
2021/01/04 01:56:43;;;;;;;8.50;5.80;;;;;;;7.72;68.08;100714.75;5095877;28;20043;-64
2021/01/04 01:59:28;;;;;;;10.23;6.70;;;;;;;7.71;68.10;100720.03;5095731;28;20130;-64
2021/01/04 02:02:24;;;;;;;12.10;6.18;;;;;;;7.70;67.86;100719.19;5069557;28;20115;-64
2021/01/04 02:04:57;;;;;;;9.95;6.20;;;;;;;7.71;67.79;100722.63;5083936;28;20413;-64
2021/01/04 02:07:33;;;;;;;9.35;6.30;;;;;;;7.69;67.89;100714.88;5095569;28;20147;-63
2021/01/04 02:10:06;;;;;;;9.75;5.97;;;;;;;7.68;67.78;100721.88;5095026;28;20074;-64
2021/01/04 02:12:45;;;;;;;9.43;5.95;;;;;;;7.67;67.84;100722.78;5095396;28;20056;-64
2021/01/04 02:15:28;;;;;;;10.77;6.63;;;;;;;7.65;67.89;100727.22;5095518;28;20055;-61
2021/01/04 02:18:32;;;;;;;14.68;5.93;;;;;;;7.63;68.02;100723.84;5095572;28;20130;-63
2021/01/04 02:21:34;;;;;;;11.45;6.80;;;;;;;7.62;67.94;100722.16;5057967;28;20041;-64
2021/01/04 02:24:14;;;;;;;11.23;6.78;;;;;;;7.61;67.97;100712.63;5094771;28;20040;-63
2021/01/04 02:26:43;;;;;;;8.00;5.85;;;;;;;7.59;68.06;100717.09;5095346;28;20047;-63
2021/01/04 02:29:18;;;;;;;10.13;6.55;;;;;;;7.57;67.83;100718.91;5095099;28;20044;-64
2021/01/04 02:31:48;;;;;;;12.03;6.93;;;;;;;7.56;68.03;100711.13;5095202;28;20048;-62
2021/01/04 02:34:18;;;;;;;9.75;6.63;;;;;;;7.55;67.87;100706.81;5094968;28;20537;-64
2021/01/04 02:36:52;;;;;;;9.55;6.25;;;;;;;7.54;67.96;100702.50;5095044;28;20071;-63
2021/01/04 02:39:22;;;;;;;12.68;6.40;;;;;;;7.52;67.85;100699.97;5095034;28;20484;-64
2021/01/04 02:41:51;;;;;;;12.73;5.97;;;;;;;7.50;67.76;100699.19;5073476;28;20424;-61
2021/01/04 02:44:19;;;;;;;10.60;5.70;;;;;;;7.49;67.75;100703.56;5089259;28;20040;-63
2021/01/04 02:46:55;;;;;;;10.27;5.93;;;;;;;7.47;67.41;100701.94;5094817;28;20044;-63
2021/01/04 02:49:49;;;;;;;9.77;5.35;;;;;;;7.46;67.34;100710.69;5095080;28;20055;-64
2021/01/04 02:52:33;;;;;;;10.00;6.20;;;;;;;7.44;67.26;100709.91;5094727;28;20098;-63
2021/01/04 02:55:09;;;;;;;8.70;6.82;;;;;;;7.43;67.14;100706.44;5094382;28;20044;-63
2021/01/04 02:57:49;;;;;;;12.18;6.72;;;;;;;7.43;67.21;100701.22;5094485;28;20048;-63
2021/01/04 03:00:19;;;;;;;11.05;6.95;;;;;;;7.42;67.38;100693.47;5089999;28;20041;-64
2021/01/04 03:02:50;;;;;;;8.20;6.20;;;;;;;7.42;67.36;100698.69;5085409;28;20044;-64
2021/01/04 03:05:20;;;;;;;10.07;7.00;;;;;;;7.42;67.32;100693.47;5094424;28;20073;-63
2021/01/04 03:08:01;;;;;;;10.18;6.70;;;;;;;7.41;67.28;100699.59;5094464;28;20405;-63
2021/01/04 03:10:38;;;;;;;9.45;6.18;;;;;;;7.39;67.29;100699.69;5094174;28;20084;-60
2021/01/04 03:13:12;;;;;;;9.30;7.10;;;;;;;7.38;67.32;100703.19;5093384;28;20495;-64
2021/01/04 03:15:38;;;;;;;12.02;6.82;;;;;;;7.36;67.39;100699.78;5094065;28;20043;-63
2021/01/04 03:18:26;;;;;;;9.73;6.57;;;;;;;7.34;67.61;100699.03;5094458;28;20055;-63
2021/01/04 03:20:52;;;;;;;10.27;7.20;;;;;;;7.33;67.54;100700.78;5094337;28;20093;-63
2021/01/04 03:23:19;;;;;;;11.90;7.90;;;;;;;7.32;67.54;100699.09;5093925;28;20052;-64
2021/01/04 03:25:45;;;;;;;9.82;6.10;;;;;;;7.31;67.55;100697.41;5094236;28;20113;-64
2021/01/04 03:28:29;;;;;;;12.23;7.43;;;;;;;7.33;67.56;100697.34;5094222;28;20044;-61
2021/01/04 03:30:56;;;;;;;11.00;7.03;;;;;;;7.31;67.67;100705.25;5093937;28;20055;-64
2021/01/04 03:33:23;;;;;;;11.85;7.30;;;;;;;7.28;67.45;100694.91;5093973;28;20052;-62
2021/01/04 03:35:51;;;;;;;11.35;7.30;;;;;;;7.28;67.65;100689.69;5093633;28;20520;-63
2021/01/04 03:38:18;;;;;;;12.35;7.30;;;;;;;7.29;67.59;100690.56;5093858;28;20044;-63
2021/01/04 03:40:45;;;;;;;10.25;7.45;;;;;;;7.27;67.68;100690.59;5093777;28;20548;-63
2021/01/04 03:43:11;;;;;;;10.82;6.45;;;;;;;7.26;67.63;100690.69;5093932;28;20044;-64
2021/01/04 03:45:37;;;;;;;12.43;7.10;;;;;;;7.25;67.74;100687.22;5093512;28;20048;-62
2021/01/04 03:48:04;;;;;;;10.88;7.20;;;;;;;7.26;67.60;100690.69;5093839;28;20036;-64
2021/01/04 03:50:31;;;;;;;9.98;7.05;;;;;;;7.28;67.70;100691.47;5093633;28;20476;-64
2021/01/04 03:52:57;;;;;;;11.27;7.47;;;;;;;7.28;67.58;100694.09;5093179;28;20373;-64
2021/01/04 03:55:23;;;;;;;10.10;7.28;;;;;;;7.28;67.74;100691.47;5093532;28;20044;-64
2021/01/04 03:57:50;;;;;;;10.65;7.22;;;;;;;7.27;67.70;100695.00;5093258;28;20406;-64
2021/01/04 04:00:17;;;;;;;10.20;7.18;;;;;;;7.27;67.86;100688.00;5088629;28;20056;-64
2021/01/04 04:02:44;;;;;;;9.98;6.85;;;;;;;7.26;67.86;100683.72;5074235;28;20047;-61
2021/01/04 04:05:15;;;;;;;12.35;7.20;;;;;;;7.27;67.76;100689.78;5087325;28;20048;-64
2021/01/04 04:07:41;;;;;;;11.02;6.90;;;;;;;7.27;68.04;100684.56;5090045;28;20055;-64
2021/01/04 04:10:09;;;;;;;10.93;7.35;;;;;;;7.26;68.07;100682.84;5089241;28;20476;-64
2021/01/04 04:12:36;;;;;;;12.85;7.50;;;;;;;7.26;68.01;100681.09;5089514;28;20104;-63
2021/01/04 04:15:05;;;;;;;10.40;7.32;;;;;;;7.26;67.99;100682.84;5089124;28;20094;-63
2021/01/04 04:17:31;;;;;;;12.23;7.30;;;;;;;7.25;68.09;100679.41;5089800;28;20060;-64
2021/01/04 04:19:57;;;;;;;12.88;8.00;;;;;;;7.25;68.33;100681.16;5089403;28;20068;-63
2021/01/04 04:22:24;;;;;;;11.73;7.20;;;;;;;7.25;68.25;100684.63;5089411;28;20058;-64
2021/01/04 04:24:50;;;;;;;14.05;8.00;;;;;;;7.25;68.25;100682.00;5067269;28;20552;-62
2021/01/04 04:27:16;;;;;;;13.38;8.10;;;;;;;7.25;68.24;100681.16;5083255;28;20674;-63
2021/01/04 04:29:46;;;;;;;11.73;7.97;;;;;;;7.25;68.44;100676.78;5089507;28;20087;-63
2021/01/04 04:32:12;;;;;;;11.15;7.57;;;;;;;7.25;68.45;100681.16;5089283;28;20054;-64
2021/01/04 04:34:39;;;;;;;12.50;7.20;;;;;;;7.26;68.49;100680.25;5089255;28;20048;-63
2021/01/04 04:37:23;;;;;;;14.43;8.05;;;;;;;7.24;68.56;100688.16;5089266;28;20040;-63
2021/01/04 04:40:01;;;;;;;11.07;7.20;;;;;;;7.24;68.67;100687.28;5089061;28;20036;-63
2021/01/04 04:42:29;;;;;;;10.50;7.38;;;;;;;7.24;68.67;100695.09;5089168;28;20554;-63
2021/01/04 05:10:51;;;;;;;10.07;6.10;;;;;;;7.21;68.91;100700.47;5062011;28;20066;-62
2021/01/04 05:13:33;;;;;;;9.15;6.05;;;;;;;7.21;69.08;100703.09;5088455;28;20044;-63
2021/01/04 05:16:07;;;;;;;9.82;5.50;;;;;;;7.22;69.34;100689.97;5064657;28;20052;-63
2021/01/04 05:18:48;;;;;;;7.22;4.90;;;;;;;7.25;69.33;100687.22;5060058;28;20045;-64
2021/01/04 05:21:49;;;;;;;7.45;4.68;;;;;;;7.27;69.48;100695.00;5089021;28;20048;-63
2021/01/04 05:24:30;;;;;;;6.82;4.07;;;;;;;7.30;69.39;100692.22;5060785;28;20518;-61
2021/01/04 05:27:12;;;;;;;7.72;4.47;;;;;;;7.32;69.39;100693.84;5090376;28;20084;-63
2021/01/04 05:29:59;;;;;;;8.52;4.82;;;;;;;7.33;69.38;100692.13;5092780;28;20048;-61
2021/01/04 05:32:40;;;;;;;7.97;3.78;;;;;;;7.35;69.38;100693.75;5092807;28;20048;-64
2021/01/04 05:35:11;;;;;;;8.85;4.38;;;;;;;7.37;69.31;100693.66;5092803;28;20101;-63
2021/01/04 05:38:20;;;;;;;5.88;3.78;;;;;;;7.39;69.30;100689.25;5092346;28;20047;-63
2021/01/04 05:41:10;;;;;;;6.50;3.47;;;;;;;7.40;69.08;100690.06;5092275;28;20400;-63
2021/01/04 05:43:55;;;;;;;7.40;3.72;;;;;;;7.39;69.03;100694.47;5092391;28;20052;-62
2021/01/04 05:46:45;;;;;;;5.30;3.13;;;;;;;7.41;69.14;100694.38;5064645;28;20048;-63
2021/01/04 05:49:21;;;;;;;5.78;3.22;;;;;;;7.41;69.12;100692.59;5092279;28;20076;-63
2021/01/04 05:51:49;;;;;;;9.07;3.20;;;;;;;7.40;68.91;100705.75;5092198;28;20069;-64
2021/01/04 05:54:26;;;;;;;4.93;2.92;;;;;;;7.41;68.90;100699.59;5091923;28;20043;-64
2021/01/04 05:57:06;;;;;;;5.22;3.63;;;;;;;7.40;68.84;100703.13;5092493;28;20082;-63
2021/01/04 05:59:32;;;;;;;7.40;3.30;;;;;;;7.40;68.98;100703.97;5092294;28;20056;-62
2021/01/04 06:02:04;;;;;;;5.68;3.38;;;;;;;7.39;69.07;100696.19;5077826;28;20040;-63
2021/01/04 06:04:30;;;;;;;7.72;3.40;;;;;;;7.37;68.81;100698.88;5069103;28;20497;-64
2021/01/04 06:07:06;;;;;;;6.70;3.67;;;;;;;7.38;69.01;100694.50;5089024;28;20040;-61
2021/01/04 06:09:33;;;;;;;5.80;3.30;;;;;;;7.36;69.02;100694.56;5091656;28;20063;-62
2021/01/04 06:12:08;;;;;;;6.55;4.00;;;;;;;7.35;68.94;100695.50;5091949;28;20497;-61
2021/01/04 06:14:37;;;;;;;8.70;3.88;;;;;;;7.32;69.10;100696.47;5092026;28;20541;-61
2021/01/04 06:17:05;;;;;;;6.57;3.33;;;;;;;7.33;68.97;100694.72;5091955;28;20139;-61
2021/01/04 06:19:42;;;;;;;5.38;3.47;;;;;;;7.29;69.06;100701.84;5092415;28;20044;-61
2021/01/04 06:22:11;;;;;;;9.38;4.53;;;;;;;7.28;69.09;100699.31;5091770;28;20075;-62
2021/01/04 06:24:40;;;;;;;11.05;6.28;;;;;;;7.28;68.87;100704.53;5082527;28;20512;-62
2021/01/04 06:27:14;;;;;;;14.43;7.38;;;;;;;7.26;69.11;100709.81;5087128;28;20048;-62
2021/01/04 06:29:47;;;;;;;12.32;7.07;;;;;;;7.25;68.92;100708.13;5091581;28;20044;-61
2021/01/04 06:32:34;;;;;;;17.10;7.82;;;;;;;7.24;68.96;100706.41;5091655;28;20056;-62
2021/01/04 06:35:09;;;;;;;13.75;7.07;;;;;;;7.22;68.96;100702.16;5091887;28;20058;-64
2021/01/04 06:37:36;;;;;;;14.13;6.00;;;;;;;7.22;68.99;100702.16;5091098;28;20043;-61
2021/01/04 06:40:18;;;;;;;11.15;5.30;;;;;;;7.20;69.18;100712.69;5091301;28;20044;-61
2021/01/04 06:42:44;;;;;;;8.77;4.05;;;;;;;7.18;69.06;100712.72;5091311;28;20446;-63
2021/01/04 06:45:26;;;;;;;11.43;3.92;;;;;;;7.17;69.03;100711.06;5091471;28;20052;-60
2021/01/04 06:48:14;;;;;;;11.45;5.00;;;;;;;7.17;69.21;100718.88;5091211;28;20048;-63
2021/01/04 06:51:10;;;;;;;11.38;6.35;;;;;;;7.17;69.03;100723.25;5091104;28;20109;-62
2021/01/04 06:54:15;;;;;;;10.75;5.55;;;;;;;7.19;69.13;100726.66;5070460;28;20051;-63
2021/01/04 06:56:59;;;;;;;9.70;4.78;;;;;;;7.19;69.00;100730.09;5065011;28;20382;-62
2021/01/04 06:59:43;;;;;;;7.68;4.20;;;;;;;7.20;68.96;100730.94;5091056;28;20074;-61
2021/01/04 07:02:09;;;;;;;8.10;3.35;;;;;;;7.21;69.04;100730.00;5063165;28;20048;-62
2021/01/04 07:04:57;;;;;;;8.50;4.10;;;;;;;7.23;68.97;100729.97;5091188;28;20048;-61
2021/01/04 07:07:45;;;;;;;8.85;3.47;;;;;;;7.25;68.81;100730.75;5065831;28;20044;-62
2021/01/04 07:10:23;;;;;;;6.07;3.13;;;;;;;7.27;68.71;100737.59;5090820;28;20052;-63
2021/01/04 07:13:14;;;;;;;7.90;3.38;;;;;;;7.29;68.80;100741.00;5091207;28;20051;-62
2021/01/04 07:16:05;;;;;;;6.57;2.78;;;;;;;7.32;68.68;100727.78;5090791;28;20073;-63
2021/01/04 07:18:35;;;;;;;4.53;2.10;;;;;;;7.35;68.41;100734.66;5090396;28;20054;-61
2021/01/04 07:21:25;;;;;;;5.55;2.30;;;;;;;7.38;68.35;100733.66;5090672;28;20044;-61
2021/01/04 07:24:12;;;;;;;5.38;2.38;;;;;;;7.41;68.10;100741.38;5090391;28;20475;-62
2021/01/04 07:27:10;;;;;;;4.88;2.25;;;;;;;7.45;67.96;100738.56;5090548;28;20077;-63
2021/01/04 07:29:46;;;;;;;5.85;2.80;;;;;;;7.49;67.75;100745.34;5066796;28;20519;-62
2021/01/04 07:32:12;;;;;;;4.25;2.55;;;;;;;7.53;67.78;100751.28;5081343;28;20059;-63
2021/01/04 07:34:49;;;;;;;5.47;2.65;;;;;;;7.57;67.60;100745.00;5077905;28;20044;-62
2021/01/04 07:37:54;;;;;;;4.70;2.38;;;;;;;7.59;67.52;100745.81;5070246;28;20167;-61
2021/01/04 07:40:43;;;;;;;6.15;2.03;;;;;;;7.62;67.48;100747.44;5070142;28;20045;-61
2021/01/04 07:43:18;;;;;;;7.82;2.85;;;;;;;7.64;67.38;100748.19;5070210;28;20074;-62
2021/01/04 07:46:05;;;;;;;4.30;1.88;;;;;;;7.66;67.45;100751.59;5070112;28;20053;-62
2021/01/04 07:49:15;;;;;;;2.78;1.98;;;;;;;7.70;67.26;100753.16;5070297;28;20053;-61
2021/01/04 07:52:09;;;;;;;5.25;1.80;;;;;;;7.75;67.28;100747.72;5058589;28;20386;-61
2021/01/04 07:55:02;;;;;;;4.47;2.70;;;;;;;7.80;67.38;100756.22;5069571;28;20489;-61
2021/01/04 07:57:50;;;;;;;4.07;2.20;;;;;;;7.85;67.25;100760.28;5069738;28;20080;-60
2021/01/04 08:00:44;;;;;;;7.15;2.42;;;;;;;7.90;67.29;100756.63;5069795;28;20400;-61
2021/01/04 08:03:35;;;;;;;5.88;1.85;;;;;;;7.94;67.27;100759.03;5084309;28;20492;-64
2021/01/04 08:06:22;;;;;;;5.82;2.30;;;;;;;7.99;67.16;100762.28;5090156;28;20059;-61
2021/01/04 08:08:56;;;;;;;8.35;2.20;;;;;;;8.01;67.14;100767.44;5089487;28;20059;-61
2021/01/04 08:11:45;;;;;;;8.27;3.72;;;;;;;8.06;67.11;100770.69;5090134;28;20064;-64
2021/01/04 08:14:30;;;;;;;7.55;3.95;;;;;;;8.16;67.22;100771.13;5079491;28;20118;-60
2021/01/04 08:17:15;;;;;;;6.60;3.80;;;;;;;8.23;67.08;100769.91;5089655;28;20040;-60
2021/01/04 08:19:44;;;;;;;4.97;3.30;;;;;;;8.28;67.04;100770.56;5078262;28;20040;-61
2021/01/04 08:22:10;;;;;;;7.03;3.20;;;;;;;8.35;66.92;100781.56;5088145;28;20051;-60
2021/01/04 08:24:43;;;;;;;6.25;3.40;;;;;;;8.39;66.91;100777.88;5089679;28;20492;-61
2021/01/04 08:27:51;;;;;;;8.60;5.07;;;;;;;8.60;66.64;100776.06;5089557;28;20508;-61
2021/01/04 08:30:20;;;;;;;;;;;;;;;8.89;66.23;100778.16;5077446;28;20497;-61
2021/01/04 08:33:23;;;;;;;3.33;2.63;;;;;;;9.16;65.73;100775.97;5089257;28;19920;-61
2021/01/04 08:35:49;;;;;;;6.00;1.75;;;;;;;9.44;65.26;100771.94;5089337;28;20044;-61
2021/01/04 08:38:20;;;;;;;2.95;1.85;;;;;;;9.62;65.01;100778.88;5089367;28;20040;-60
2021/01/04 08:41:14;;;;;;;2.92;1.63;;;;;;;9.73;64.87;100773.06;5088997;28;20062;-61
2021/01/04 08:43:42;;;;;;;2.75;1.50;;;;;;;9.78;64.72;100783.31;5089270;28;20048;-61
2021/01/04 08:46:22;;;;;;;4.03;1.80;;;;;;;9.83;64.66;100791.75;5087248;28;20048;-60
2021/01/04 08:49:16;;;;;;;3.15;1.55;;;;;;;9.94;64.67;100789.41;5088995;28;20055;-61
2021/01/04 08:51:45;;;;;;;3.75;1.38;;;;;;;10.18;64.14;100789.00;5089207;28;20499;-61
2021/01/04 08:54:11;;;;;;;3.58;1.67;;;;;;;10.18;64.17;100794.25;5089143;28;20512;-63
2021/01/04 08:56:44;;;;;;;3.08;1.40;;;;;;;10.21;63.96;100795.88;5089089;28;20036;-61
2021/01/04 08:59:15;;;;;;;4.07;1.60;;;;;;;10.18;63.93;100793.41;5089551;28;20054;-63
2021/01/04 09:02:18;;;;;;;4.22;1.75;;;;;;;10.08;64.15;100807.03;5074519;28;20098;-61
2021/01/04 09:04:44;;;;;;;3.70;1.70;;;;;;;9.95;64.30;100801.59;5088793;28;20089;-61
2021/01/04 09:07:21;;;;;;;3.10;1.45;;;;;;;9.90;64.36;100805.38;5088970;28;20070;-61
2021/01/04 09:09:55;;;;;;;3.38;1.50;;;;;;;9.84;64.63;100803.94;5088307;28;20512;-62
2021/01/04 09:12:40;;;;;;;3.50;1.73;;;;;;;9.77;64.62;100813.88;5088829;28;20048;-61
2021/01/04 09:15:12;;;;;;;5.50;1.70;;;;;;;9.71;64.93;100810.75;5088735;28;20580;-61
2021/01/04 09:17:46;;;;;;;3.42;1.50;;;;;;;9.67;64.97;100811.84;5088616;28;20048;-61
2021/01/04 09:20:18;;;;;;;4.22;1.45;;;;;;;9.58;65.13;100818.41;5087488;28;20487;-61
2021/01/04 09:22:45;;;;;;;3.28;1.50;;;;;;;9.53;65.12;100818.63;5081041;28;20504;-60
2021/01/04 09:25:28;;;;;;;2.92;1.50;;;;;;;9.49;65.06;100819.72;5075945;28;20082;-61
2021/01/04 09:27:56;;;;;;;4.15;1.45;;;;;;;9.45;65.33;100812.94;5075805;28;20507;-62
2021/01/04 09:30:25;;;;;;;4.15;1.50;;;;;;;9.41;65.47;100809.63;5081749;28;20051;-61
2021/01/04 09:33:10;;;;;;;7.05;1.70;;;;;;;9.40;65.58;100814.94;5082781;28;20048;-60
2021/01/04 09:35:36;;;;;;;3.95;1.60;;;;;;;9.35;65.51;100811.72;5083125;28;20040;-61
2021/01/04 09:38:07;;;;;;;3.67;1.58;;;;;;;9.33;65.92;100814.38;5078932;28;20471;-61
2021/01/04 09:40:34;;;;;;;9.43;3.90;;;;;;;9.32;65.94;100817.94;5082397;28;20040;-62
2021/01/04 09:43:12;;;;;;;2.72;1.77;;;;;;;9.30;66.07;100818.00;5079475;28;20044;-62
2021/01/04 09:45:39;;;;;;;4.22;1.90;;;;;;;9.29;66.07;100821.56;5083338;28;20066;-63
2021/01/04 09:48:19;;;;;;;4.82;1.95;;;;;;;9.28;66.00;100829.47;5080938;28;20037;-61
2021/01/04 09:50:53;;;;;;;3.92;1.60;;;;;;;9.26;66.07;100824.31;5084027;28;20079;-62
2021/01/04 09:53:24;;;;;;;5.20;1.35;;;;;;;9.20;65.69;100822.00;5081378;28;20052;-63
2021/01/04 09:55:58;;;;;;;3.90;1.50;;;;;;;9.15;65.40;100821.41;5082032;28;20040;-61
2021/01/04 09:58:24;;;;;;;3.58;1.30;;;;;;;9.10;65.09;100826.88;5079243;28;20044;-61
2021/01/04 10:01:05;;;;;;;3.17;1.20;;;;;;;9.07;64.82;100820.94;5083012;28;20067;-61
2021/01/04 10:03:31;;;;;;;4.80;1.40;;;;;;;9.05;64.92;100815.75;5081187;28;20382;-61
2021/01/04 10:05:57;;;;;;;6.38;1.70;;;;;;;9.03;64.52;100817.63;5081145;28;20071;-62
2021/01/04 10:08:27;;;;;;;2.95;1.50;;;;;;;8.99;64.70;100816.91;5077095;28;20123;-63
2021/01/04 10:11:21;;;;;;;3.55;1.60;;;;;;;8.98;64.62;100812.59;5074943;28;20480;-61
2021/01/04 10:13:47;;;;;;;3.90;1.65;;;;;;;8.99;64.53;100814.31;5077441;28;20044;-63
2021/01/04 10:16:22;;;;;;;3.65;2.00;;;;;;;8.98;64.62;100812.59;5073541;28;20044;-63
2021/01/04 10:19:15;;;;;;;5.82;2.15;;;;;;;8.98;64.66;100809.16;5073927;28;20040;-64
2021/01/04 10:21:48;;;;;;;8.32;2.33;;;;;;;8.98;64.66;100807.38;5066663;28;20044;-63
2021/01/04 10:24:25;;;;;;;6.32;4.07;;;;;;;8.98;64.66;100817.00;5064506;28;20045;-61
2021/01/04 10:26:55;;;;;;;4.00;1.77;;;;;;;8.98;64.84;100812.59;5079577;28;20059;-62
2021/01/04 10:29:25;;;;;;;5.53;2.67;;;;;;;8.97;64.96;100810.91;5081605;28;20040;-62
2021/01/04 10:32:04;;;;;;;3.33;1.88;;;;;;;8.96;65.08;100806.63;5072380;28;20552;-63
2021/01/04 10:34:47;;;;;;;3.65;1.90;;;;;;;8.96;65.17;100795.28;5071413;28;20056;-70
2021/01/04 10:37:30;;;;;;;7.40;2.30;;;;;;;8.95;65.14;100798.81;5066263;28;20049;-61
2021/01/04 10:40:03;;;;;;;3.88;1.60;;;;;;;8.93;65.34;100796.28;5070757;28;20461;-66
2021/01/04 10:42:30;;;;;;;4.47;2.13;;;;;;;8.92;65.45;100788.50;5069835;28;20553;-63
2021/01/04 10:45:09;;;;;;;4.55;1.85;;;;;;;8.92;65.36;100798.97;5071320;28;20045;-67
2021/01/04 10:47:46;;;;;;;5.38;2.35;;;;;;;8.91;65.51;100782.44;5071136;28;20054;-60
2021/01/04 10:50:31;;;;;;;4.15;1.75;;;;;;;8.91;65.61;100790.28;5070806;28;20090;-65
2021/01/04 10:53:06;;;;;;;5.55;3.63;;;;;;;8.92;65.83;100783.28;5073794;28;20047;-64
2021/01/04 10:55:36;;;;;;;3.33;2.00;;;;;;;8.93;65.88;100790.22;5071348;28;20051;-63
2021/01/04 10:58:14;;;;;;;3.80;1.77;;;;;;;8.91;65.76;100779.81;5071450;28;20040;-61
2021/01/04 11:00:50;;;;;;;3.15;1.70;;;;;;;8.93;65.76;100772.72;5076520;28;20126;-67
2021/01/04 11:03:17;;;;;;;5.32;3.63;;;;;;;8.93;65.85;100769.28;5080267;28;20422;-65
2021/01/04 11:05:48;;;;;;;4.95;2.22;;;;;;;8.92;65.77;100771.03;5086577;28;20609;-69
2021/01/04 11:08:25;;;;;;;3.25;2.03;;;;;;;8.90;65.95;100761.56;5088487;28;20059;-66
2021/01/04 11:10:56;;;;;;;4.38;2.55;;;;;;;8.90;65.82;100765.03;5085917;28;20056;-62
2021/01/04 11:13:28;;;;;;;5.05;2.78;;;;;;;8.91;65.82;100760.63;5086514;28;20048;-66
2021/01/04 11:16:04;;;;;;;6.25;2.90;;;;;;;8.91;65.86;100750.16;5087061;28;20055;-61
2021/01/04 11:18:30;;;;;;;5.38;3.15;;;;;;;8.93;65.75;100757.03;5083259;28;20085;-62
2021/01/04 11:20:56;;;;;;;6.35;2.95;;;;;;;8.94;65.80;100747.41;5087249;28;20047;-62
2021/01/04 11:23:22;;;;;;;6.60;3.53;;;;;;;8.96;65.81;100749.03;5088159;28;20109;-66
2021/01/04 11:25:49;;;;;;;5.70;2.42;;;;;;;8.98;65.76;100746.34;5086849;28;20067;-65
2021/01/04 11:28:15;;;;;;;5.35;2.80;;;;;;;8.99;65.62;100745.41;5086652;28;20492;-68
2021/01/04 11:30:51;;;;;;;3.40;2.28;;;;;;;9.01;65.76;100742.72;5085418;28;20047;-65
2021/01/04 11:33:19;;;;;;;3.28;2.20;;;;;;;9.01;65.97;100743.53;5087037;28;20052;-64
2021/01/04 11:35:46;;;;;;;3.70;2.10;;;;;;;9.02;65.87;100732.16;5082770;28;20048;-64
2021/01/04 11:38:12;;;;;;;4.05;2.13;;;;;;;9.04;65.99;100735.56;5079072;28;20049;-67
2021/01/04 11:40:38;;;;;;;4.60;2.63;;;;;;;9.07;66.06;100730.16;5069329;28;20056;-64
2021/01/04 11:43:04;;;;;;;5.40;2.33;;;;;;;9.10;65.88;100726.53;5071864;28;20040;-61
2021/01/04 11:45:30;;;;;;;6.95;2.42;;;;;;;9.12;65.95;100728.16;5072275;28;20040;-65
2021/01/04 11:47:58;;;;;;;4.00;2.28;;;;;;;9.13;65.76;100726.41;5075076;28;20047;-65
2021/01/04 11:50:25;;;;;;;4.80;1.80;;;;;;;9.16;65.58;100726.22;5072423;28;20048;-63
2021/01/04 11:52:54;;;;;;;3.65;1.50;;;;;;;9.17;65.44;100725.31;5074206;28;20054;-63
2021/01/04 11:55:20;;;;;;;3.35;1.30;;;;;;;9.20;65.46;100724.31;5069785;28;20044;-64
2021/01/04 11:57:46;;;;;;;4.78;1.85;;;;;;;9.23;65.20;100716.28;5071683;28;20059;-64
2021/01/04 12:00:13;;;;;;;5.80;1.80;;;;;;;9.25;65.06;100723.13;5074469;28;20053;-62
2021/01/04 12:02:41;;;;;;;2.20;1.30;;;;;;;9.26;64.96;100721.38;5069522;28;20413;-64
2021/01/04 12:05:09;;;;;;;3.17;1.88;;;;;;;9.26;64.81;100722.22;5068960;28;20047;-65
2021/01/04 12:07:35;;;;;;;3.28;1.42;;;;;;;9.28;64.77;100724.75;5071428;28;20040;-65
2021/01/04 12:10:02;;;;;;;3.70;1.48;;;;;;;9.30;64.56;100717.66;5068888;28;20595;-63
2021/01/04 12:12:29;;;;;;;5.18;1.70;;;;;;;9.36;64.32;100713.88;5079631;28;20570;-61
2021/01/04 12:14:55;;;;;;;4.50;1.90;;;;;;;9.42;64.33;100710.94;5084389;28;20078;-64
2021/01/04 12:17:22;;;;;;;7.78;1.55;;;;;;;9.47;64.20;100711.53;5079046;28;20094;-62
2021/01/04 12:19:48;;;;;;;4.35;1.75;;;;;;;9.47;64.22;100711.53;5083722;28;20051;-61
2021/01/04 12:22:15;;;;;;;8.27;2.80;;;;;;;9.45;64.17;100709.00;5080978;28;20047;-63
2021/01/04 12:24:46;;;;;;;7.38;3.13;;;;;;;9.44;64.35;100701.22;5077797;28;20048;-62
2021/01/04 12:27:13;;;;;;;2.25;1.60;;;;;;;9.43;64.36;100705.63;5069002;28;20052;-62
2021/01/04 12:29:47;;;;;;;2.58;1.90;;;;;;;9.41;64.42;100702.25;5077712;28;20485;-64
2021/01/04 12:32:14;;;;;;;4.13;1.58;;;;;;;9.40;64.46;100699.72;5068975;28;20102;-65
2021/01/04 12:34:41;;;;;;;5.18;2.00;;;;;;;9.39;64.89;100703.25;5069013;28;20063;-64
2021/01/04 12:37:08;;;;;;;5.72;1.95;;;;;;;9.36;65.09;100699.03;5068475;28;20045;-61
2021/01/04 12:39:34;;;;;;;3.42;1.90;;;;;;;9.35;65.16;100701.72;5071292;28;20477;-66
2021/01/04 12:42:00;;;;;;;5.15;1.90;;;;;;;9.33;65.15;100704.41;5067960;28;20057;-62